Spar Hydra — LAKL7 — position and weather

sailwx.info

Track history (hours):
 
Tides and Currents Weather Stations Pressure Air Temp Water Temp Dewpoint Dewpoint Depression Visibility Wind Speed Wind Dir Waves Ship Positions

Spar Hydra

Last reported at 2015-Mar-04 19:31 UTC. Time now 2015-Mar-26 19:15 UTC.
Position N 01°13' E 103°53'.
Warning: this ship's position is 21 days out of date.

Length 190 m; draft 9.7 m.

Type: Ship. MMSI: 259701000.

Date/timePositionNaut miles runAvg speedWind from/ knotsBaromVisibWave heightAir tempDewpointWater temp
2015-Mar-04 19:31N 01°13' E 103°53'5 1.0
2015-Mar-04 14:22N 01°16' E 103°56'0 0.0
2015-Mar-04 13:04N 01°16' E 103°56'0 0.0
2015-Mar-04 12:28N 01°16' E 103°56'0 0.1
2015-Mar-04 11:28N 01°16' E 103°56'0 0.2
2015-Mar-04 10:16N 01°16' E 103°56'0 0.1
2015-Mar-04 09:16N 01°16' E 103°56'0 0.0
2015-Mar-04 08:28N 01°16' E 103°56'0 0.0
2015-Mar-04 07:28N 01°16' E 103°56'0 0.0
2015-Mar-04 06:22N 01°16' E 103°56'0 0.0
2015-Mar-04 05:28N 01°16' E 103°56'0 0.1
2015-Mar-04 04:33N 01°16' E 103°56'5 4.6
2015-Mar-04 03:31N 01°16' E 104°01'8 7.9
2015-Mar-04 02:33N 01°17' E 104°09'7 7.3
2015-Mar-04 01:32N 01°18' E 104°16'  
2015-Feb-26 15:33N 22°45' E 119°35'  
Track history (hours):
 
Tides and Currents Weather Stations Pressure Air Temp Water Temp Dewpoint Dewpoint Depression Visibility Wind Speed Wind Dir Waves Ship Positions

Spar Hydra

Last reported at 2015-Mar-04 19:31 UTC. Time now 2015-Mar-26 19:15 UTC.
Position N 01°13' E 103°53'.
Warning: this ship's position is 21 days out of date.

Length 190 m; draft 9.7 m.

Type: Ship. MMSI: 259701000.

Date/timePositionNaut miles runAvg speedWind from/ knotsBaromVisibWave heightAir tempDewpointWater temp
2015-Mar-04 19:31N 01°13' E 103°53'5 1.0
2015-Mar-04 14:22N 01°16' E 103°56'0 0.0
2015-Mar-04 13:04N 01°16' E 103°56'0 0.0
2015-Mar-04 12:28N 01°16' E 103°56'0 0.1
2015-Mar-04 11:28N 01°16' E 103°56'0 0.2
2015-Mar-04 10:16N 01°16' E 103°56'0 0.1
2015-Mar-04 09:16N 01°16' E 103°56'0 0.0
2015-Mar-04 08:28N 01°16' E 103°56'0 0.0
2015-Mar-04 07:28N 01°16' E 103°56'0 0.0
2015-Mar-04 06:22N 01°16' E 103°56'0 0.0
2015-Mar-04 05:28N 01°16' E 103°56'0 0.1
2015-Mar-04 04:33N 01°16' E 103°56'5 4.6
2015-Mar-04 03:31N 01°16' E 104°01'8 7.9
2015-Mar-04 02:33N 01°17' E 104°09'7 7.3
2015-Mar-04 01:32N 01°18' E 104°16'  
2015-Feb-26 15:33N 22°45' E 119°35'  

Dump ship's entire track history